sensor_id;sensor_type;location;lat;lon;timestamp;P1;durP1;ratioP1;P2;durP2;ratioP2
78796;SDS011;68145;52.514;13.460;2023-11-21T00:01:24;11.52;;;6.93;;
78796;SDS011;68145;52.514;13.460;2023-11-21T00:03:50;14.63;;;8.40;;
78796;SDS011;68145;52.514;13.460;2023-11-21T00:06:19;17.27;;;9.50;;
78796;SDS011;68145;52.514;13.460;2023-11-21T00:08:45;13.02;;;8.18;;
78796;SDS011;68145;52.514;13.460;2023-11-21T00:11:11;13.57;;;8.13;;
78796;SDS011;68145;52.514;13.460;2023-11-21T00:13:37;13.85;;;8.25;;
78796;SDS011;68145;52.514;13.460;2023-11-21T00:16:04;14.27;;;8.27;;
78796;SDS011;68145;52.514;13.460;2023-11-21T00:18:30;15.52;;;9.30;;
78796;SDS011;68145;52.514;13.460;2023-11-21T00:20:56;17.48;;;9.23;;
78796;SDS011;68145;52.514;13.460;2023-11-21T00:23:24;24.08;;;11.45;;
78796;SDS011;68145;52.514;13.460;2023-11-21T00:25:50;19.42;;;10.23;;
78796;SDS011;68145;52.514;13.460;2023-11-21T00:28:16;19.88;;;11.13;;
78796;SDS011;68145;52.514;13.460;2023-11-21T00:30:42;22.95;;;11.23;;
78796;SDS011;68145;52.514;13.460;2023-11-21T00:33:08;23.42;;;11.80;;
78796;SDS011;68145;52.514;13.460;2023-11-21T00:35:34;23.58;;;12.63;;
78796;SDS011;68145;52.514;13.460;2023-11-21T00:38:00;24.17;;;12.50;;
78796;SDS011;68145;52.514;13.460;2023-11-21T00:40:28;22.60;;;12.95;;
78796;SDS011;68145;52.514;13.460;2023-11-21T00:42:54;26.08;;;13.50;;
78796;SDS011;68145;52.514;13.460;2023-11-21T00:45:21;25.85;;;13.13;;
78796;SDS011;68145;52.514;13.460;2023-11-21T00:47:47;29.35;;;14.48;;
78796;SDS011;68145;52.514;13.460;2023-11-21T00:50:13;25.63;;;13.27;;
78796;SDS011;68145;52.514;13.460;2023-11-21T00:52:39;29.00;;;13.57;;
78796;SDS011;68145;52.514;13.460;2023-11-21T00:55:05;26.13;;;13.50;;
78796;SDS011;68145;52.514;13.460;2023-11-21T00:57:32;29.92;;;13.60;;
78796;SDS011;68145;52.514;13.460;2023-11-21T00:59:58;31.20;;;13.50;;
78796;SDS011;68145;52.514;13.460;2023-11-21T01:02:25;32.15;;;14.25;;
78796;SDS011;68145;52.514;13.460;2023-11-21T01:04:51;30.35;;;14.60;;
78796;SDS011;68145;52.514;13.460;2023-11-21T01:07:17;29.15;;;13.05;;
78796;SDS011;68145;52.514;13.460;2023-11-21T01:09:45;29.20;;;13.20;;
78796;SDS011;68145;52.514;13.460;2023-11-21T01:12:11;30.75;;;13.95;;
78796;SDS011;68145;52.514;13.460;2023-11-21T01:14:37;35.10;;;14.95;;
78796;SDS011;68145;52.514;13.460;2023-11-21T01:17:03;32.72;;;13.80;;
78796;SDS011;68145;52.514;13.460;2023-11-21T01:19:30;35.88;;;15.20;;
78796;SDS011;68145;52.514;13.460;2023-11-21T01:21:56;29.13;;;14.60;;
78796;SDS011;68145;52.514;13.460;2023-11-21T01:24:23;40.08;;;16.27;;
78796;SDS011;68145;52.514;13.460;2023-11-21T01:26:49;38.78;;;16.00;;
78796;SDS011;68145;52.514;13.460;2023-11-21T01:29:15;46.75;;;18.70;;
78796;SDS011;68145;52.514;13.460;2023-11-21T01:31:41;44.03;;;17.58;;
78796;SDS011;68145;52.514;13.460;2023-11-21T01:34:07;52.55;;;18.58;;
78796;SDS011;68145;52.514;13.460;2023-11-21T01:36:34;54.53;;;20.45;;
78796;SDS011;68145;52.514;13.460;2023-11-21T01:39:00;52.92;;;19.17;;
78796;SDS011;68145;52.514;13.460;2023-11-21T01:41:27;54.65;;;18.90;;
78796;SDS011;68145;52.514;13.460;2023-11-21T01:43:53;49.97;;;18.05;;
78796;SDS011;68145;52.514;13.460;2023-11-21T01:46:20;47.45;;;18.02;;
78796;SDS011;68145;52.514;13.460;2023-11-21T01:48:46;36.45;;;15.38;;
78796;SDS011;68145;52.514;13.460;2023-11-21T01:51:14;37.47;;;16.50;;
78796;SDS011;68145;52.514;13.460;2023-11-21T01:53:40;41.25;;;14.70;;
78796;SDS011;68145;52.514;13.460;2023-11-21T01:56:06;37.63;;;14.25;;
78796;SDS011;68145;52.514;13.460;2023-11-21T01:58:33;39.70;;;14.85;;
78796;SDS011;68145;52.514;13.460;2023-11-21T02:00:59;40.08;;;13.13;;
78796;SDS011;68145;52.514;13.460;2023-11-21T02:03:25;33.42;;;12.68;;
78796;SDS011;68145;52.514;13.460;2023-11-21T02:05:52;30.38;;;11.48;;
78796;SDS011;68145;52.514;13.460;2023-11-21T02:08:18;32.58;;;11.70;;
78796;SDS011;68145;52.514;13.460;2023-11-21T02:10:45;27.98;;;11.00;;
78796;SDS011;68145;52.514;13.460;2023-11-21T02:13:12;26.05;;;11.68;;
78796;SDS011;68145;52.514;13.460;2023-11-21T02:15:38;30.42;;;10.50;;
78796;SDS011;68145;52.514;13.460;2023-11-21T02:18:04;25.88;;;10.63;;
78796;SDS011;68145;52.514;13.460;2023-11-21T02:20:31;25.83;;;10.70;;
78796;SDS011;68145;52.514;13.460;2023-11-21T02:23:00;27.88;;;10.95;;
78796;SDS011;68145;52.514;13.460;2023-11-21T02:25:27;29.85;;;11.75;;
78796;SDS011;68145;52.514;13.460;2023-11-21T02:27:53;27.05;;;10.15;;
78796;SDS011;68145;52.514;13.460;2023-11-21T02:30:20;26.25;;;10.85;;
78796;SDS011;68145;52.514;13.460;2023-11-21T02:32:47;26.70;;;11.23;;
78796;SDS011;68145;52.514;13.460;2023-11-21T02:35:13;26.63;;;10.02;;
78796;SDS011;68145;52.514;13.460;2023-11-21T02:37:40;26.02;;;10.75;;
78796;SDS011;68145;52.514;13.460;2023-11-21T02:40:08;22.75;;;9.75;;
78796;SDS011;68145;52.514;13.460;2023-11-21T02:42:34;23.08;;;10.70;;
78796;SDS011;68145;52.514;13.460;2023-11-21T02:45:01;24.85;;;10.50;;
78796;SDS011;68145;52.514;13.460;2023-11-21T02:47:27;19.73;;;8.65;;
78796;SDS011;68145;52.514;13.460;2023-11-21T02:49:54;19.48;;;8.95;;
78796;SDS011;68145;52.514;13.460;2023-11-21T02:52:20;20.00;;;9.18;;
78796;SDS011;68145;52.514;13.460;2023-11-21T02:54:46;14.98;;;7.60;;
78796;SDS011;68145;52.514;13.460;2023-11-21T02:57:12;17.92;;;7.30;;
78796;SDS011;68145;52.514;13.460;2023-11-21T02:59:38;20.05;;;9.00;;
78796;SDS011;68145;52.514;13.460;2023-11-21T03:02:04;15.98;;;7.93;;
78796;SDS011;68145;52.514;13.460;2023-11-21T03:04:33;13.43;;;7.53;;
78796;SDS011;68145;52.514;13.460;2023-11-21T03:07:00;15.50;;;8.20;;
78796;SDS011;68145;52.514;13.460;2023-11-21T03:09:26;15.18;;;8.60;;
78796;SDS011;68145;52.514;13.460;2023-11-21T03:11:52;15.10;;;8.38;;
78796;SDS011;68145;52.514;13.460;2023-11-21T03:14:18;14.88;;;8.38;;
78796;SDS011;68145;52.514;13.460;2023-11-21T03:16:45;17.70;;;9.38;;
78796;SDS011;68145;52.514;13.460;2023-11-21T03:19:11;12.27;;;7.63;;
78796;SDS011;68145;52.514;13.460;2023-11-21T03:21:37;13.35;;;7.07;;
78796;SDS011;68145;52.514;13.460;2023-11-21T03:24:03;13.07;;;8.52;;
78796;SDS011;68145;52.514;13.460;2023-11-21T03:26:29;12.80;;;7.43;;
78796;SDS011;68145;52.514;13.460;2023-11-21T03:28:56;11.57;;;7.35;;
78796;SDS011;68145;52.514;13.460;2023-11-21T03:31:22;12.05;;;7.22;;
78796;SDS011;68145;52.514;13.460;2023-11-21T03:33:48;13.80;;;8.13;;
78796;SDS011;68145;52.514;13.460;2023-11-21T03:36:14;13.57;;;8.18;;
78796;SDS011;68145;52.514;13.460;2023-11-21T03:38:40;13.27;;;7.53;;
78796;SDS011;68145;52.514;13.460;2023-11-21T03:41:07;11.27;;;7.07;;
78796;SDS011;68145;52.514;13.460;2023-11-21T03:43:36;10.90;;;6.75;;
78796;SDS011;68145;52.514;13.460;2023-11-21T03:46:02;13.93;;;7.13;;
78796;SDS011;68145;52.514;13.460;2023-11-21T03:48:29;10.23;;;6.22;;
78796;SDS011;68145;52.514;13.460;2023-11-21T03:50:55;13.75;;;7.13;;
78796;SDS011;68145;52.514;13.460;2023-11-21T03:53:21;16.13;;;6.93;;
78796;SDS011;68145;52.514;13.460;2023-11-21T03:55:47;15.35;;;7.97;;
78796;SDS011;68145;52.514;13.460;2023-11-21T03:58:14;11.52;;;6.32;;
78796;SDS011;68145;52.514;13.460;2023-11-21T04:00:40;8.90;;;6.10;;
78796;SDS011;68145;52.514;13.460;2023-11-21T04:03:06;11.25;;;6.57;;
78796;SDS011;68145;52.514;13.460;2023-11-21T04:05:32;10.52;;;6.05;;
78796;SDS011;68145;52.514;13.460;2023-11-21T04:07:58;10.43;;;6.72;;
78796;SDS011;68145;52.514;13.460;2023-11-21T04:10:24;11.20;;;6.60;;
78796;SDS011;68145;52.514;13.460;2023-11-21T04:12:50;11.75;;;6.60;;
78796;SDS011;68145;52.514;13.460;2023-11-21T04:15:16;11.70;;;6.45;;
78796;SDS011;68145;52.514;13.460;2023-11-21T04:17:42;10.35;;;6.05;;
78796;SDS011;68145;52.514;13.460;2023-11-21T04:20:10;9.32;;;5.65;;
78796;SDS011;68145;52.514;13.460;2023-11-21T04:22:37;10.90;;;6.28;;
78796;SDS011;68145;52.514;13.460;2023-11-21T04:25:06;9.07;;;6.32;;
78796;SDS011;68145;52.514;13.460;2023-11-21T04:27:32;9.98;;;6.30;;
78796;SDS011;68145;52.514;13.460;2023-11-21T04:29:58;9.73;;;5.40;;
78796;SDS011;68145;52.514;13.460;2023-11-21T04:32:24;11.73;;;5.82;;
78796;SDS011;68145;52.514;13.460;2023-11-21T04:34:50;7.95;;;5.25;;
78796;SDS011;68145;52.514;13.460;2023-11-21T04:37:16;7.47;;;4.40;;
78796;SDS011;68145;52.514;13.460;2023-11-21T04:39:42;10.63;;;5.05;;
78796;SDS011;68145;52.514;13.460;2023-11-21T04:42:08;11.63;;;5.72;;
78796;SDS011;68145;52.514;13.460;2023-11-21T04:44:34;10.10;;;6.05;;
78796;SDS011;68145;52.514;13.460;2023-11-21T04:47:00;8.75;;;5.10;;
78796;SDS011;68145;52.514;13.460;2023-11-21T04:49:26;10.32;;;5.60;;
78796;SDS011;68145;52.514;13.460;2023-11-21T04:51:52;10.07;;;5.10;;
78796;SDS011;68145;52.514;13.460;2023-11-21T04:54:18;8.23;;;5.15;;
78796;SDS011;68145;52.514;13.460;2023-11-21T04:56:44;9.40;;;5.78;;
78796;SDS011;68145;52.514;13.460;2023-11-21T04:59:10;9.45;;;5.13;;
78796;SDS011;68145;52.514;13.460;2023-11-21T05:01:36;8.43;;;5.03;;
78796;SDS011;68145;52.514;13.460;2023-11-21T05:04:04;9.77;;;5.65;;
78796;SDS011;68145;52.514;13.460;2023-11-21T05:06:31;7.75;;;4.38;;
78796;SDS011;68145;52.514;13.460;2023-11-21T05:08:57;6.97;;;4.72;;
78796;SDS011;68145;52.514;13.460;2023-11-21T05:11:27;8.65;;;4.75;;
78796;SDS011;68145;52.514;13.460;2023-11-21T05:13:54;7.47;;;4.65;;
78796;SDS011;68145;52.514;13.460;2023-11-21T05:16:25;7.22;;;4.32;;
78796;SDS011;68145;52.514;13.460;2023-11-21T05:18:52;8.07;;;5.18;;
78796;SDS011;68145;52.514;13.460;2023-11-21T05:21:21;9.20;;;4.97;;
78796;SDS011;68145;52.514;13.460;2023-11-21T05:23:48;8.63;;;5.13;;
78796;SDS011;68145;52.514;13.460;2023-11-21T05:26:14;8.15;;;4.88;;
78796;SDS011;68145;52.514;13.460;2023-11-21T05:28:40;9.20;;;5.47;;
78796;SDS011;68145;52.514;13.460;2023-11-21T05:31:06;9.95;;;6.00;;
78796;SDS011;68145;52.514;13.460;2023-11-21T05:33:32;7.85;;;5.07;;
78796;SDS011;68145;52.514;13.460;2023-11-21T05:35:58;8.38;;;4.45;;
78796;SDS011;68145;52.514;13.460;2023-11-21T05:38:24;10.05;;;5.25;;
78796;SDS011;68145;52.514;13.460;2023-11-21T05:40:50;7.97;;;4.93;;
78796;SDS011;68145;52.514;13.460;2023-11-21T05:43:17;8.25;;;5.15;;
78796;SDS011;68145;52.514;13.460;2023-11-21T05:45:43;9.38;;;4.93;;
78796;SDS011;68145;52.514;13.460;2023-11-21T05:48:09;9.98;;;5.95;;
78796;SDS011;68145;52.514;13.460;2023-11-21T05:50:35;9.23;;;5.13;;
78796;SDS011;68145;52.514;13.460;2023-11-21T05:53:02;9.75;;;5.20;;
78796;SDS011;68145;52.514;13.460;2023-11-21T05:55:29;8.68;;;5.25;;
78796;SDS011;68145;52.514;13.460;2023-11-21T05:57:55;7.82;;;4.90;;
78796;SDS011;68145;52.514;13.460;2023-11-21T06:00:21;6.65;;;4.45;;
78796;SDS011;68145;52.514;13.460;2023-11-21T06:02:47;9.48;;;4.88;;
78796;SDS011;68145;52.514;13.460;2023-11-21T06:05:17;9.10;;;5.18;;
78796;SDS011;68145;52.514;13.460;2023-11-21T06:07:43;9.52;;;4.93;;
78796;SDS011;68145;52.514;13.460;2023-11-21T06:10:10;9.93;;;5.55;;
78796;SDS011;68145;52.514;13.460;2023-11-21T06:12:40;10.68;;;6.30;;
78796;SDS011;68145;52.514;13.460;2023-11-21T06:15:08;10.43;;;5.65;;
78796;SDS011;68145;52.514;13.460;2023-11-21T06:17:35;8.23;;;5.55;;
78796;SDS011;68145;52.514;13.460;2023-11-21T06:20:05;12.02;;;6.22;;
78796;SDS011;68145;52.514;13.460;2023-11-21T06:22:44;9.77;;;5.03;;
78796;SDS011;68145;52.514;13.460;2023-11-21T06:25:10;8.93;;;5.43;;
78796;SDS011;68145;52.514;13.460;2023-11-21T06:27:47;9.02;;;5.05;;
78796;SDS011;68145;52.514;13.460;2023-11-21T06:30:13;8.82;;;5.60;;
78796;SDS011;68145;52.514;13.460;2023-11-21T06:32:40;9.63;;;4.88;;
78796;SDS011;68145;52.514;13.460;2023-11-21T06:35:06;8.63;;;4.80;;
78796;SDS011;68145;52.514;13.460;2023-11-21T06:37:33;9.07;;;5.22;;
78796;SDS011;68145;52.514;13.460;2023-11-21T06:40:00;9.65;;;4.60;;
78796;SDS011;68145;52.514;13.460;2023-11-21T06:42:26;7.45;;;4.68;;
78796;SDS011;68145;52.514;13.460;2023-11-21T06:44:54;7.40;;;4.38;;
78796;SDS011;68145;52.514;13.460;2023-11-21T06:49:51;7.63;;;4.57;;
78796;SDS011;68145;52.514;13.460;2023-11-21T06:52:18;8.43;;;5.20;;
78796;SDS011;68145;52.514;13.460;2023-11-21T06:54:45;9.13;;;4.80;;
78796;SDS011;68145;52.514;13.460;2023-11-21T06:57:12;8.23;;;4.53;;
78796;SDS011;68145;52.514;13.460;2023-11-21T06:59:38;6.95;;;4.22;;
78796;SDS011;68145;52.514;13.460;2023-11-21T07:02:04;9.38;;;5.53;;
78796;SDS011;68145;52.514;13.460;2023-11-21T07:04:31;8.23;;;4.60;;
78796;SDS011;68145;52.514;13.460;2023-11-21T07:06:57;8.18;;;5.20;;
78796;SDS011;68145;52.514;13.460;2023-11-21T07:09:24;6.32;;;4.53;;
78796;SDS011;68145;52.514;13.460;2023-11-21T07:11:53;9.80;;;4.72;;
78796;SDS011;68145;52.514;13.460;2023-11-21T07:14:20;6.50;;;4.18;;
78796;SDS011;68145;52.514;13.460;2023-11-21T07:16:46;6.93;;;4.57;;
78796;SDS011;68145;52.514;13.460;2023-11-21T07:19:12;6.22;;;3.90;;
78796;SDS011;68145;52.514;13.460;2023-11-21T07:21:38;8.30;;;4.78;;
78796;SDS011;68145;52.514;13.460;2023-11-21T07:24:05;10.57;;;4.70;;
78796;SDS011;68145;52.514;13.460;2023-11-21T07:26:31;6.75;;;4.30;;
78796;SDS011;68145;52.514;13.460;2023-11-21T07:28:58;6.95;;;4.18;;
78796;SDS011;68145;52.514;13.460;2023-11-21T07:31:25;9.73;;;4.97;;
78796;SDS011;68145;52.514;13.460;2023-11-21T07:33:51;6.20;;;3.63;;
78796;SDS011;68145;52.514;13.460;2023-11-21T07:36:18;8.15;;;4.90;;
78796;SDS011;68145;52.514;13.460;2023-11-21T07:38:46;7.63;;;4.20;;
78796;SDS011;68145;52.514;13.460;2023-11-21T07:41:13;6.82;;;4.90;;
78796;SDS011;68145;52.514;13.460;2023-11-21T07:43:40;6.22;;;3.95;;
78796;SDS011;68145;52.514;13.460;2023-11-21T07:46:06;6.57;;;4.10;;
78796;SDS011;68145;52.514;13.460;2023-11-21T07:48:33;9.55;;;4.80;;
78796;SDS011;68145;52.514;13.460;2023-11-21T07:51:00;6.15;;;3.97;;
78796;SDS011;68145;52.514;13.460;2023-11-21T07:53:26;6.25;;;3.88;;
78796;SDS011;68145;52.514;13.460;2023-11-21T07:55:55;7.30;;;4.55;;
78796;SDS011;68145;52.514;13.460;2023-11-21T07:58:21;7.53;;;4.55;;
78796;SDS011;68145;52.514;13.460;2023-11-21T08:00:50;6.68;;;3.75;;
78796;SDS011;68145;52.514;13.460;2023-11-21T08:03:17;6.97;;;3.40;;
78796;SDS011;68145;52.514;13.460;2023-11-21T08:05:43;7.70;;;3.88;;
78796;SDS011;68145;52.514;13.460;2023-11-21T08:08:09;8.45;;;4.75;;
78796;SDS011;68145;52.514;13.460;2023-11-21T08:10:35;10.68;;;4.90;;
78796;SDS011;68145;52.514;13.460;2023-11-21T08:13:01;9.00;;;4.55;;
78796;SDS011;68145;52.514;13.460;2023-11-21T08:15:28;9.55;;;5.25;;
78796;SDS011;68145;52.514;13.460;2023-11-21T08:17:56;10.30;;;4.25;;
78796;SDS011;68145;52.514;13.460;2023-11-21T08:20:23;8.90;;;4.93;;
78796;SDS011;68145;52.514;13.460;2023-11-21T08:22:50;8.70;;;5.13;;
78796;SDS011;68145;52.514;13.460;2023-11-21T08:25:18;11.93;;;4.97;;
78796;SDS011;68145;52.514;13.460;2023-11-21T08:27:45;13.13;;;5.65;;
78796;SDS011;68145;52.514;13.460;2023-11-21T08:30:11;9.85;;;4.70;;
78796;SDS011;68145;52.514;13.460;2023-11-21T08:32:39;9.77;;;4.30;;
78796;SDS011;68145;52.514;13.460;2023-11-21T08:35:06;9.77;;;4.72;;
78796;SDS011;68145;52.514;13.460;2023-11-21T08:37:32;15.38;;;6.38;;
78796;SDS011;68145;52.514;13.460;2023-11-21T08:40:02;9.50;;;5.05;;
78796;SDS011;68145;52.514;13.460;2023-11-21T08:42:29;12.18;;;5.50;;
78796;SDS011;68145;52.514;13.460;2023-11-21T08:44:55;11.82;;;4.88;;
78796;SDS011;68145;52.514;13.460;2023-11-21T08:47:23;12.63;;;5.35;;
78796;SDS011;68145;52.514;13.460;2023-11-21T08:49:52;11.27;;;5.55;;
78796;SDS011;68145;52.514;13.460;2023-11-21T08:52:21;15.77;;;6.50;;
78796;SDS011;68145;52.514;13.460;2023-11-21T08:54:48;15.48;;;5.40;;
78796;SDS011;68145;52.514;13.460;2023-11-21T08:57:21;13.90;;;5.53;;
78796;SDS011;68145;52.514;13.460;2023-11-21T08:59:47;14.65;;;6.15;;
78796;SDS011;68145;52.514;13.460;2023-11-21T09:02:13;12.07;;;5.95;;
78796;SDS011;68145;52.514;13.460;2023-11-21T09:04:39;13.10;;;6.10;;
78796;SDS011;68145;52.514;13.460;2023-11-21T09:07:05;12.50;;;5.18;;
78796;SDS011;68145;52.514;13.460;2023-11-21T09:09:31;13.57;;;5.63;;
78796;SDS011;68145;52.514;13.460;2023-11-21T09:11:57;16.02;;;5.80;;
78796;SDS011;68145;52.514;13.460;2023-11-21T09:14:25;13.63;;;6.38;;
78796;SDS011;68145;52.514;13.460;2023-11-21T09:16:51;11.60;;;6.03;;
78796;SDS011;68145;52.514;13.460;2023-11-21T09:19:17;12.80;;;5.70;;
78796;SDS011;68145;52.514;13.460;2023-11-21T09:21:44;12.05;;;5.20;;
78796;SDS011;68145;52.514;13.460;2023-11-21T09:24:10;14.25;;;5.40;;
78796;SDS011;68145;52.514;13.460;2023-11-21T09:26:36;14.18;;;6.18;;
78796;SDS011;68145;52.514;13.460;2023-11-21T09:29:02;15.05;;;6.40;;
78796;SDS011;68145;52.514;13.460;2023-11-21T09:31:28;12.23;;;4.68;;
78796;SDS011;68145;52.514;13.460;2023-11-21T09:33:56;10.20;;;5.13;;
78796;SDS011;68145;52.514;13.460;2023-11-21T09:36:22;6.53;;;3.63;;
78796;SDS011;68145;52.514;13.460;2023-11-21T09:38:52;7.95;;;3.63;;
78796;SDS011;68145;52.514;13.460;2023-11-21T09:41:26;7.53;;;3.45;;
78796;SDS011;68145;52.514;13.460;2023-11-21T09:43:55;7.65;;;3.78;;
78796;SDS011;68145;52.514;13.460;2023-11-21T09:46:25;7.03;;;3.55;;
78796;SDS011;68145;52.514;13.460;2023-11-21T09:48:55;10.50;;;3.80;;
78796;SDS011;68145;52.514;13.460;2023-11-21T09:51:24;7.88;;;4.00;;
78796;SDS011;68145;52.514;13.460;2023-11-21T09:53:55;8.75;;;3.97;;
78796;SDS011;68145;52.514;13.460;2023-11-21T09:56:23;10.85;;;4.57;;
78796;SDS011;68145;52.514;13.460;2023-11-21T09:58:52;11.63;;;5.82;;
78796;SDS011;68145;52.514;13.460;2023-11-21T10:01:19;11.50;;;5.25;;
78796;SDS011;68145;52.514;13.460;2023-11-21T10:03:46;10.20;;;4.35;;
78796;SDS011;68145;52.514;13.460;2023-11-21T10:06:13;7.18;;;3.45;;
78796;SDS011;68145;52.514;13.460;2023-11-21T10:08:39;5.50;;;2.40;;
78796;SDS011;68145;52.514;13.460;2023-11-21T10:11:06;5.85;;;3.03;;
78796;SDS011;68145;52.514;13.460;2023-11-21T10:13:36;4.00;;;2.53;;
78796;SDS011;68145;52.514;13.460;2023-11-21T10:16:03;6.75;;;3.95;;
78796;SDS011;68145;52.514;13.460;2023-11-21T10:18:30;7.03;;;3.42;;
78796;SDS011;68145;52.514;13.460;2023-11-21T10:20:59;3.70;;;2.63;;
78796;SDS011;68145;52.514;13.460;2023-11-21T10:23:26;5.55;;;2.72;;
78796;SDS011;68145;52.514;13.460;2023-11-21T10:25:52;4.07;;;2.30;;
78796;SDS011;68145;52.514;13.460;2023-11-21T10:28:20;5.32;;;2.40;;
78796;SDS011;68145;52.514;13.460;2023-11-21T10:30:49;5.20;;;2.80;;
78796;SDS011;68145;52.514;13.460;2023-11-21T10:33:15;4.72;;;2.85;;
78796;SDS011;68145;52.514;13.460;2023-11-21T10:38:07;3.83;;;2.30;;
78796;SDS011;68145;52.514;13.460;2023-11-21T10:40:39;3.92;;;2.17;;
78796;SDS011;68145;52.514;13.460;2023-11-21T10:43:08;5.47;;;3.40;;
78796;SDS011;68145;52.514;13.460;2023-11-21T10:45:36;5.35;;;3.40;;
78796;SDS011;68145;52.514;13.460;2023-11-21T10:48:05;4.47;;;2.40;;
78796;SDS011;68145;52.514;13.460;2023-11-21T10:50:33;4.80;;;2.50;;
78796;SDS011;68145;52.514;13.460;2023-11-21T10:53:01;6.68;;;2.60;;
78796;SDS011;68145;52.514;13.460;2023-11-21T10:55:27;5.30;;;2.88;;
78796;SDS011;68145;52.514;13.460;2023-11-21T10:57:54;3.58;;;2.40;;
78796;SDS011;68145;52.514;13.460;2023-11-21T11:00:21;4.82;;;2.90;;
78796;SDS011;68145;52.514;13.460;2023-11-21T11:02:50;5.57;;;3.45;;
78796;SDS011;68145;52.514;13.460;2023-11-21T11:07:43;6.93;;;4.15;;
78796;SDS011;68145;52.514;13.460;2023-11-21T11:10:10;5.55;;;3.38;;
78796;SDS011;68145;52.514;13.460;2023-11-21T11:12:40;3.65;;;2.67;;
78796;SDS011;68145;52.514;13.460;2023-11-21T11:15:07;6.30;;;3.40;;
78796;SDS011;68145;52.514;13.460;2023-11-21T11:17:37;6.25;;;3.97;;
78796;SDS011;68145;52.514;13.460;2023-11-21T11:20:07;5.88;;;3.42;;
78796;SDS011;68145;52.514;13.460;2023-11-21T11:37:56;4.82;;;3.10;;
78796;SDS011;68145;52.514;13.460;2023-11-21T11:40:25;4.93;;;3.35;;
78796;SDS011;68145;52.514;13.460;2023-11-21T11:42:57;10.32;;;4.68;;
78796;SDS011;68145;52.514;13.460;2023-11-21T11:45:24;8.93;;;5.00;;
78796;SDS011;68145;52.514;13.460;2023-11-21T11:47:56;7.30;;;4.00;;
78796;SDS011;68145;52.514;13.460;2023-11-21T11:50:22;11.20;;;5.18;;
78796;SDS011;68145;52.514;13.460;2023-11-21T11:52:51;7.93;;;4.28;;
78796;SDS011;68145;52.514;13.460;2023-11-21T11:55:18;6.80;;;3.83;;
78796;SDS011;68145;52.514;13.460;2023-11-21T11:57:48;5.35;;;4.15;;
78796;SDS011;68145;52.514;13.460;2023-11-21T12:00:18;5.95;;;3.35;;
78796;SDS011;68145;52.514;13.460;2023-11-21T12:02:49;5.13;;;2.97;;
78796;SDS011;68145;52.514;13.460;2023-11-21T12:05:19;5.78;;;3.30;;
78796;SDS011;68145;52.514;13.460;2023-11-21T12:07:52;5.57;;;4.10;;
78796;SDS011;68145;52.514;13.460;2023-11-21T12:10:22;5.07;;;3.70;;
78796;SDS011;68145;52.514;13.460;2023-11-21T12:12:53;6.43;;;3.97;;
78796;SDS011;68145;52.514;13.460;2023-11-21T12:15:20;8.27;;;3.67;;
78796;SDS011;68145;52.514;13.460;2023-11-21T12:17:46;9.93;;;5.60;;
78796;SDS011;68145;52.514;13.460;2023-11-21T12:20:14;6.03;;;3.97;;
78796;SDS011;68145;52.514;13.460;2023-11-21T12:22:47;4.10;;;3.42;;
78796;SDS011;68145;52.514;13.460;2023-11-21T12:25:14;4.03;;;2.63;;
78796;SDS011;68145;52.514;13.460;2023-11-21T12:27:44;3.83;;;2.90;;
78796;SDS011;68145;52.514;13.460;2023-11-21T12:30:11;4.00;;;2.65;;
78796;SDS011;68145;52.514;13.460;2023-11-21T12:32:42;4.05;;;2.63;;
78796;SDS011;68145;52.514;13.460;2023-11-21T12:35:09;3.72;;;2.45;;
78796;SDS011;68145;52.514;13.460;2023-11-21T12:37:36;6.38;;;2.53;;
78796;SDS011;68145;52.514;13.460;2023-11-21T12:40:04;4.55;;;2.50;;
78796;SDS011;68145;52.514;13.460;2023-11-21T12:42:31;3.67;;;2.30;;
78796;SDS011;68145;52.514;13.460;2023-11-21T12:47:45;7.43;;;3.85;;
78796;SDS011;68145;52.514;13.460;2023-11-21T12:50:11;4.32;;;2.72;;
78796;SDS011;68145;52.514;13.460;2023-11-21T12:52:44;4.63;;;2.60;;
78796;SDS011;68145;52.514;13.460;2023-11-21T12:55:16;4.00;;;2.65;;
78796;SDS011;68145;52.514;13.460;2023-11-21T12:57:47;5.20;;;3.03;;
78796;SDS011;68145;52.514;13.460;2023-11-21T13:00:15;3.65;;;2.58;;
78796;SDS011;68145;52.514;13.460;2023-11-21T13:02:51;4.18;;;2.67;;
78796;SDS011;68145;52.514;13.460;2023-11-21T13:05:26;4.65;;;2.63;;
78796;SDS011;68145;52.514;13.460;2023-11-21T13:07:52;6.45;;;3.30;;
78796;SDS011;68145;52.514;13.460;2023-11-21T13:10:21;5.32;;;3.35;;
78796;SDS011;68145;52.514;13.460;2023-11-21T13:12:51;5.32;;;2.90;;
78796;SDS011;68145;52.514;13.460;2023-11-21T13:15:17;4.45;;;3.20;;
78796;SDS011;68145;52.514;13.460;2023-11-21T13:17:44;7.85;;;3.67;;
78796;SDS011;68145;52.514;13.460;2023-11-21T13:20:11;4.68;;;2.97;;
78796;SDS011;68145;52.514;13.460;2023-11-21T13:22:53;5.90;;;3.88;;
78796;SDS011;68145;52.514;13.460;2023-11-21T13:25:24;5.05;;;2.97;;
78796;SDS011;68145;52.514;13.460;2023-11-21T13:27:56;5.53;;;3.25;;
78796;SDS011;68145;52.514;13.460;2023-11-21T13:30:22;4.65;;;2.92;;
78796;SDS011;68145;52.514;13.460;2023-11-21T13:32:54;5.78;;;3.20;;
78796;SDS011;68145;52.514;13.460;2023-11-21T13:35:27;5.55;;;3.30;;
78796;SDS011;68145;52.514;13.460;2023-11-21T13:38:02;6.38;;;3.90;;
78796;SDS011;68145;52.514;13.460;2023-11-21T13:40:28;6.75;;;4.35;;
78796;SDS011;68145;52.514;13.460;2023-11-21T13:42:55;6.55;;;4.18;;
78796;SDS011;68145;52.514;13.460;2023-11-21T13:45:24;7.97;;;4.38;;
78796;SDS011;68145;52.514;13.460;2023-11-21T13:47:51;9.85;;;5.93;;
78796;SDS011;68145;52.514;13.460;2023-11-21T13:50:20;7.05;;;5.03;;
78796;SDS011;68145;52.514;13.460;2023-11-21T13:52:54;7.90;;;4.40;;
78796;SDS011;68145;52.514;13.460;2023-11-21T13:55:20;9.13;;;4.72;;
78796;SDS011;68145;52.514;13.460;2023-11-21T13:57:49;6.85;;;4.30;;
78796;SDS011;68145;52.514;13.460;2023-11-21T14:00:17;7.43;;;4.15;;
78796;SDS011;68145;52.514;13.460;2023-11-21T14:03:02;10.20;;;5.65;;
78796;SDS011;68145;52.514;13.460;2023-11-21T14:05:33;8.68;;;5.10;;
78796;SDS011;68145;52.514;13.460;2023-11-21T14:07:59;13.63;;;5.30;;
78796;SDS011;68145;52.514;13.460;2023-11-21T14:13:01;9.88;;;5.68;;
78796;SDS011;68145;52.514;13.460;2023-11-21T14:15:28;10.02;;;6.03;;
78796;SDS011;68145;52.514;13.460;2023-11-21T14:17:54;11.65;;;7.07;;
78796;SDS011;68145;52.514;13.460;2023-11-21T14:20:20;12.40;;;6.72;;
78796;SDS011;68145;52.514;13.460;2023-11-21T14:22:47;13.07;;;7.50;;
78796;SDS011;68145;52.514;13.460;2023-11-21T14:25:13;11.23;;;7.45;;
78796;SDS011;68145;52.514;13.460;2023-11-21T14:27:39;12.70;;;8.05;;
78796;SDS011;68145;52.514;13.460;2023-11-21T14:30:06;14.02;;;8.45;;
78796;SDS011;68145;52.514;13.460;2023-11-21T14:32:33;14.38;;;7.45;;
78796;SDS011;68145;52.514;13.460;2023-11-21T14:35:00;17.98;;;10.25;;
78796;SDS011;68145;52.514;13.460;2023-11-21T14:37:26;17.88;;;10.05;;
78796;SDS011;68145;52.514;13.460;2023-11-21T14:39:52;16.50;;;9.68;;
78796;SDS011;68145;52.514;13.460;2023-11-21T14:42:19;15.68;;;9.75;;
78796;SDS011;68145;52.514;13.460;2023-11-21T14:44:50;17.02;;;10.93;;
78796;SDS011;68145;52.514;13.460;2023-11-21T14:47:17;19.95;;;11.15;;
78796;SDS011;68145;52.514;13.460;2023-11-21T14:49:50;19.35;;;11.23;;
78796;SDS011;68145;52.514;13.460;2023-11-21T14:52:19;18.10;;;11.13;;
78796;SDS011;68145;52.514;13.460;2023-11-21T14:55:08;16.70;;;10.18;;